Thursday, November 23, 2017, 9:37 AM GMT
Back to Local

CWNE, North Point, Prince Edward Island

Location: , , Canada Lat: 47.083
Local Time: 9:37 AM GMT ( 9:37 GMT) Lon: -64
Time Zone: GMT Elev: 49 ft

Show me the last for .
Show Coded

Time T Td Feel RH Dir Speed Gust Alt SLP Vis Weather Sky Remarks
2017-11-23 09:00 27 - 7 0 340° 41 51 - 29.25 0 Peak wind: 50 mph (44 kts) from 20° at 06 min
1-hr Precip Total: 0.13"
2017-11-23 08:00 27 - 8 0 350° 41 49 - 29.28 0 Peak wind: 50 mph (44 kts) from 350° at 49 min
1-hr Precip Total: 0.34"
2017-11-23 07:00 28 - 9 0 350° 39 49 - 29.34 0 Peak wind: 49 mph (43 kts) from 340° at 54 min
Pressure falling rapidly
1-hr Precip Total: 0.16"
2017-11-23 06:00 28 - 10 0 360° 36 43 - 29.40 0 Peak wind: 42 mph (37 kts) from 350° at 58 min
Pressure falling rapidly
1-hr Precip Total: 0.16"
2017-11-23 05:00 29 - 11 0 360° 35 41 - 29.48 0 Peak wind: 41 mph (36 kts) from 0° at 54 min
Pressure falling rapidly
1-hr Precip Total: 0.14"
2017-11-23 04:00 30 - 14 0 340° 28 35 - 29.54 0 Peak wind: 34 mph (30 kts) from 350° at 58 min
1-hr Precip Total: 0.26"
2017-11-23 03:00 33 - 24 0 340° 13 - - 29.59 0 1-hr Precip Total: 0.25"
2017-11-23 02:00 35 - - 0 240° 1 - - 29.64 0 1-hr Precip Total: 0.22"
2017-11-23 01:00 34 - 28 0 100° 7 - - 29.67 0 Pressure falling rapidly
1-hr Precip Total: 0.13"
2017-11-23 00:00 35 - 24 0 90° 16 - - 29.75 0 Peak wind: 19 mph (17 kts) from 130° at 03 min
1-hr Precip Total: 0.11"
2017-11-22 23:00 35 - 26 0 140° 14 - - 29.79 0 1-hr Precip Total: 0.04"
2017-11-22 22:00 36 36 30 100 140° 8 - - 29.84 0 None
2017-11-22 21:00 36 36 29 100 130° 9 - - 29.88 0 None
2017-11-22 20:00 38 36 32 94 150° 7 - - 29.91 0 None
2017-11-22 19:00 39 37 35 92 160° 6 - - 29.93 0 None
2017-11-22 18:00 40 37 34 89 150° 8 - - 29.95 0 None
2017-11-22 17:00 40 38 35 92 160° 7 - - 29.96 0 None
2017-11-22 16:00 39 36 34 89 160° 6 - - 29.98 0 None
2017-11-22 15:00 38 36 35 92 140° 5 - - 30.00 0 None
2017-11-22 14:00 39 37 35 93 220° 6 - - 30.00 0 None
2017-11-22 13:00 37 37 30 100 200° 10 - - 30.01 0 None
2017-11-22 12:00 35 35 26 100 220° 12 - - 30.02 0 None
2017-11-22 11:00 34 34 28 100 180° 7 - - 29.99 0 None
2017-11-22 10:00 35 35 27 100 220° 10 - - 29.99 0 None

Support USWX by starting your Amazon purchase here.